CLMO2: North Canadian River

Data processed at Thu May 23 2019 23:50


All information presented herein is the property of the government of the United States of America and may be revised or deleted at any time without prior notice.
Dissemination of this information without the expressed written consent of the Public Affairs Office, Tulsa District U.S. Army Corps of Engineers is strictly prohibited.
These data are gathered electronically and, as presented, have not undergone any form of quality control. These data are not guaranteed to be valid or correct.
Go to home page.
Go to station list.
Go to home page.

Upstream stations:

Downstream station:
Previous Day
Next Day
Current Day
    
SHEF ID:       CLMO2     North Canadian River near Calume
STATION TYPE:  
Regulating: Stage =    12.00, Flow =     1375

                STAGE  STAGE(2)  RIV-FLOW  WTR-TEMP   DIS-OXY        PH   CONDUCT  BAT-LOAD
                   ft        ft       cfs         F      mg/l        su   umho/cm      volt
              Ccp-Rev   Ccp-Rev   Ccp-Rev   Ccp-Rev   Ccp-Rev   Ccp-Rev   Ccp-Rev   Ccp-Rev
(US/Central)
05/23 00:00     14.83      ----      2724     65.03      3.75      7.65       380     12.81
05/23 01:00     14.80      ----      2702     65.14      3.43      7.64       380     12.81
05/23 02:00     14.81      ----      2710     65.21      3.72      7.64       378     12.81
05/23 03:00     14.82      ----      2717     65.25      3.47      7.64       378     12.81
05/23 04:00     14.81      ----      2586     65.28      3.55      7.65       377     12.73
05/23 05:00     14.77      ----      2558     65.30      3.50      7.65       377     12.73
05/23 06:00     14.78      ----      2565     65.34      3.50      7.65       377     12.73
05/23 07:00     14.74      ----      2536     65.39      3.66      7.65       377     12.73
05/23 08:00     14.72      ----      2522     65.44      3.40      7.65       377     12.65
05/23 09:00     14.70      ----      2508     65.55      3.58      7.65       377     12.73
05/23 10:00     14.67      ----      2490     65.75      4.00      7.61       381     13.21
05/23 11:00     14.64      ----      2473     65.97      3.78      7.63       381     13.29
05/23 12:00     14.60      ----      2449     66.22      3.62      7.65       381     13.29
05/23 13:00     14.54      ----      2414     66.47      3.67      7.65       382     13.53
05/23 14:00     14.50      ----      2390     66.69      3.50      7.65       382     13.37
05/23 15:00     14.45      ----      2362     66.85      3.72      7.64       383     13.44
05/23 16:00     14.41      ----      2339     67.06      3.67      7.65       384     13.37
05/23 17:00     14.35      ----      2304     67.39      3.73      7.65       385     13.53
05/23 18:00     14.28      ----      2265     67.73      3.27      7.65       386     13.44
05/23 19:00     14.20      ----      2220     67.96      3.50      7.64       388     13.29
05/23 20:00     14.16      ----      2198     68.13      3.64      7.65       391     13.13
05/23 21:00     14.13      ----      2182     68.29      3.57      7.65       394     12.89
05/23 22:00     14.04      ----      2133     68.40      3.92      7.65       396     12.89
05/23 23:00     13.98      ----      2101     68.50      3.89      7.65       400     12.81